Time;durP1;ratioP1;P1;durP2;ratioP2;P2;SDS_P1;SDS_P2;PMS_P1;PMS_P2;Temp;Humidity;BMP_temperature;BMP_pressure;BME280_temperature;BME280_humidity;BME280_pressure;Samples;Min_cycle;Max_cycle;Signal;HPM_P1;HPM_P2
2023/06/07 17:07:08;;;;;;;;;;;;;;;25.16;55.59;99747.09;5284226;26;798730;-85
2023/06/07 17:09:36;;;;;;;;;;;;;;;25.06;54.81;99740.91;5322847;26;34137;-85
2023/06/07 17:12:04;;;;;;;;;;;;;;;24.97;55.31;99747.28;5339789;26;33947;-85
2023/06/07 17:14:31;;;;;;;;;;;;;;;25.18;54.90;99745.06;5339617;26;34690;-85
2023/06/07 17:16:59;;;;;;;;;;;;;;;25.14;54.79;99743.69;5320863;26;32529;-86
2023/06/07 17:19:26;;;;;;;;;;;;;;;25.29;54.51;99741.22;5339605;26;34253;-85
2023/06/07 17:21:53;;;;;;;;;;;;;;;25.37;54.00;99741.25;5338895;26;34897;-84
2023/06/07 17:24:21;;;;;;;;;;;;;;;25.39;54.54;99736.53;5340936;26;33869;-84
2023/06/07 17:26:48;;;;;;;;;;;;;;;25.01;55.45;99740.56;5321267;26;32872;-84
2023/06/07 17:29:16;;;;;;;;;;;;;;;24.99;55.58;99740.72;5321552;26;33811;-85
2023/06/07 17:31:56;;;;;;;;;;;;;;;24.78;57.10;99741.13;5323126;26;33749;-85
2023/06/07 17:34:23;;;;;;;;;;;;;;;25.14;55.88;99737.44;5321706;26;33683;-85
2023/06/07 17:36:51;;;;;;;;;;;;;;;25.31;55.39;99743.78;5339558;26;32049;-85
2023/06/07 17:39:21;;;;;;;;;;;;;;;25.27;55.53;99749.50;5320385;26;33701;-85
2023/06/07 17:41:48;;;;;;;;;;;;;;;25.29;55.21;99747.47;5303519;26;32998;-85
2023/06/07 17:44:16;;;;;;;;;;;;;;;25.16;55.48;99754.34;5341215;26;33784;-85
2023/06/07 17:46:45;;;;;;;;;;;;;;;25.20;55.57;99748.44;5302614;26;32003;-86
2023/06/07 17:49:16;;;;;;;;;;;;;;;25.13;55.85;99752.81;5339397;26;33352;-85
2023/06/07 17:51:47;;;;;;;;;;;;;;;24.87;57.35;99758.19;5321910;26;34303;-85
2023/06/07 17:54:14;;;;;;;;;;;;;;;25.16;56.34;99763.31;5340912;26;34904;-84
2023/06/07 17:56:42;;;;;;;;;;;;;;;25.19;55.11;99748.63;5320352;26;33648;-86
2023/06/07 17:59:10;;;;;;;;;;;;;;;25.28;55.20;99747.66;5321551;26;33776;-85
2023/06/07 18:01:39;;;;;;;;;;;;;;;25.31;54.27;99751.88;5339526;26;34404;-85
2023/06/07 18:04:07;;;;;;;;;;;;;;;25.06;55.66;99751.72;5320972;26;32815;-85
2023/06/07 18:06:34;;;;;;;;;;;;;;;24.85;56.46;99753.97;5340265;26;32778;-85
2023/06/07 18:09:01;;;;;;;;;;;;;;;24.59;57.44;99753.97;5315027;26;34071;-85
2023/06/07 18:11:30;;;;;;;;;;;;;;;24.67;56.89;99743.22;5298928;26;34319;-86
2023/06/07 18:13:57;;;;;;;;;;;;;;;25.09;55.21;99746.03;5320190;26;33179;-86
2023/06/07 18:16:25;;;;;;;;;;;;;;;25.04;55.36;99745.66;5320939;26;33329;-86
2023/06/07 18:18:53;;;;;;;;;;;;;;;24.99;55.55;99751.53;5319908;26;33082;-86
2023/06/07 18:21:20;;;;;;;;;;;;;;;24.86;55.95;99750.28;5338844;26;35049;-86
2023/06/07 18:23:48;;;;;;;;;;;;;;;24.93;55.74;99759.44;5338697;26;33742;-86
2023/06/07 18:26:16;;;;;;;;;;;;;;;24.87;55.93;99757.34;5302561;26;33519;-86
2023/06/07 18:28:43;;;;;;;;;;;;;;;24.74;56.76;99764.06;5320215;26;34719;-85
2023/06/07 18:31:10;;;;;;;;;;;;;;;24.69;57.10;99768.25;5318932;26;34800;-85
2023/06/07 18:33:38;;;;;;;;;;;;;;;24.85;57.50;99775.59;5338371;26;33855;-86
2023/06/07 18:36:06;;;;;;;;;;;;;;;24.40;59.31;99784.69;5333404;26;32894;-86
2023/06/07 18:38:33;;;;;;;;;;;;;;;24.07;60.98;99792.50;5320026;26;34062;-85
2023/06/07 18:41:01;;;;;;;;;;;;;;;23.98;60.69;99791.56;5338278;26;34812;-85
2023/06/07 18:43:29;;;;;;;;;;;;;;;23.84;60.87;99791.25;5339141;26;34921;-86
2023/06/07 18:45:56;;;;;;;;;;;;;;;23.45;60.99;99792.28;5319694;26;32402;-85
2023/06/07 18:48:27;;;;;;;;;;;;;;;23.27;61.83;99793.22;5338514;26;33843;-85
2023/06/07 18:50:55;;;;;;;;;;;;;;;23.19;62.01;99800.19;5320330;26;33977;-86
2023/06/07 18:53:23;;;;;;;;;;;;;;;23.06;62.60;99796.97;5319478;26;33894;-86
2023/06/07 18:55:50;;;;;;;;;;;;;;;23.40;61.66;99802.63;5320776;26;33870;-86
2023/06/07 18:58:18;;;;;;;;;;;;;;;23.40;61.43;99799.94;5320382;26;32747;-86
2023/06/07 19:00:48;;;;;;;;;;;;;;;23.38;61.06;99801.09;5302646;26;32718;-86
2023/06/07 19:03:16;;;;;;;;;;;;;;;23.27;60.78;99801.31;5320264;26;34329;-85
2023/06/07 19:05:43;;;;;;;;;;;;;;;23.36;60.42;99808.47;5319862;26;34078;-86
2023/06/07 19:08:11;;;;;;;;;;;;;;;23.38;60.51;99801.09;5320265;26;35002;-86
2023/06/07 19:10:39;;;;;;;;;;;;;;;23.16;61.20;99808.56;5319906;26;34387;-86
2023/06/07 19:13:06;;;;;;;;;;;;;;;23.15;61.50;99808.72;5320493;26;33809;-85
2023/06/07 19:15:33;;;;;;;;;;;;;;;23.13;61.50;99808.03;5319721;26;33546;-86
2023/06/07 19:18:02;;;;;;;;;;;;;;;23.03;61.82;99818.81;5302625;26;33234;-86
2023/06/07 19:20:34;;;;;;;;;;;;;;;23.05;61.78;99822.22;5339489;26;33764;-86
2023/06/07 19:23:01;;;;;;;;;;;;;;;22.96;61.94;99826.63;5321452;26;34502;-86
2023/06/07 19:25:29;;;;;;;;;;;;;;;22.95;61.65;99822.22;5320480;26;34093;-86
2023/06/07 19:27:56;;;;;;;;;;;;;;;23.05;61.35;99818.66;5321361;26;32393;-86
2023/06/07 19:30:26;;;;;;;;;;;;;;;23.14;60.93;99828.56;5339622;26;34334;-86
2023/06/07 19:32:54;;;;;;;;;;;;;;;22.93;61.33;99826.06;5338974;26;34312;-86
2023/06/07 19:35:21;;;;;;;;;;;;;;;22.83;61.50;99825.19;5321347;26;33462;-86
2023/06/07 19:37:49;;;;;;;;;;;;;;;22.82;61.44;99820.81;5320853;26;33809;-87
2023/06/07 19:40:17;;;;;;;;;;;;;;;22.90;61.42;99824.53;5318565;26;33094;-87
2023/06/07 19:42:44;;;;;;;;;;;;;;;22.91;61.39;99826.22;5320423;26;34090;-87
2023/06/07 19:45:12;;;;;;;;;;;;;;;22.95;61.18;99833.00;5320243;26;33705;-86
2023/06/07 19:47:39;;;;;;;;;;;;;;;22.96;61.12;99833.84;5302864;26;32967;-87
2023/06/07 19:50:07;;;;;;;;;;;;;;;23.01;60.91;99836.94;5339626;26;34299;-87
2023/06/07 19:52:35;;;;;;;;;;;;;;;22.99;60.93;99834.41;5339931;26;34239;-87
2023/06/07 19:55:02;;;;;;;;;;;;;;;22.78;61.90;99831.00;5320981;26;32517;-87
2023/06/07 19:57:30;;;;;;;;;;;;;;;22.78;62.10;99835.56;5321339;26;34011;-87
2023/06/07 19:59:58;;;;;;;;;;;;;;;22.87;61.41;99837.38;5320186;26;33357;-87
2023/06/07 20:02:25;;;;;;;;;;;;;;;22.64;62.49;99831.47;5319814;26;32976;-87
2023/06/07 20:04:53;;;;;;;;;;;;;;;22.69;62.32;99831.88;5321442;26;32924;-87
2023/06/07 20:07:21;;;;;;;;;;;;;;;22.50;62.70;99827.34;5300738;26;34355;-87
2023/06/07 20:09:49;;;;;;;;;;;;;;;22.54;62.53;99823.41;5338976;26;33410;-87
2023/06/07 20:12:17;;;;;;;;;;;;;;;22.57;62.73;99817.75;5320851;26;33626;-87
2023/06/07 20:14:44;;;;;;;;;;;;;;;22.62;62.47;99826.22;5320149;26;32927;-87
2023/06/07 20:17:12;;;;;;;;;;;;;;;22.68;62.35;99820.25;5321323;26;34431;-87
2023/06/07 20:19:40;;;;;;;;;;;;;;;22.58;62.59;99821.28;5339035;26;34335;-87
2023/06/07 20:22:07;;;;;;;;;;;;;;;22.68;62.13;99822.09;5320324;26;34149;-87
2023/06/07 20:24:34;;;;;;;;;;;;;;;22.54;62.40;99814.47;5339279;26;33199;-87
2023/06/07 20:27:02;;;;;;;;;;;;;;;22.70;61.57;99818.28;5339945;26;33862;-87
2023/06/07 20:29:30;;;;;;;;;;;;;;;22.53;62.22;99815.47;5341228;26;33441;-87
2023/06/07 20:31:57;;;;;;;;;;;;;;;22.53;62.13;99810.09;5321208;26;34403;-87
2023/06/07 20:34:26;;;;;;;;;;;;;;;22.41;62.52;99814.78;5339974;26;34275;-87
2023/06/07 20:36:53;;;;;;;;;;;;;;;22.44;62.43;99812.63;5320545;26;34083;-87
2023/06/07 20:39:20;;;;;;;;;;;;;;;22.41;62.30;99812.09;5339886;26;34262;-87
2023/06/07 20:41:48;;;;;;;;;;;;;;;22.37;62.41;99811.53;5320385;26;33395;-86
2023/06/07 20:44:15;;;;;;;;;;;;;;;22.29;62.65;99813.22;5303438;26;32537;-86
2023/06/07 20:46:43;;;;;;;;;;;;;;;22.23;62.86;99810.13;5321374;26;32481;-87
2023/06/07 20:49:10;;;;;;;;;;;;;;;22.23;62.62;99815.50;5321043;26;34048;-87
2023/06/07 20:51:38;;;;;;;;;;;;;;;22.23;62.57;99818.19;5321494;26;33847;-87
2023/06/07 20:54:05;;;;;;;;;;;;;;;22.12;62.90;99818.28;5321134;26;32782;-86
2023/06/07 20:56:33;;;;;;;;;;;;;;;22.27;61.97;99820.59;5338920;26;34682;-87
2023/06/07 20:59:01;;;;;;;;;;;;;;;22.08;62.56;99821.41;5341323;26;34788;-87
2023/06/07 21:01:28;;;;;;;;;;;;;;;22.07;62.61;99815.16;5321385;26;34132;-86
2023/06/07 21:03:57;;;;;;;;;;;;;;;21.93;62.83;99815.56;5302357;26;33756;-87
2023/06/07 21:06:24;;;;;;;;;;;;;;;21.97;62.80;99811.59;5337918;26;33986;-87
2023/06/07 21:08:51;;;;;;;;;;;;;;;21.86;63.14;99811.75;5340822;26;35037;-88
2023/06/07 21:11:19;;;;;;;;;;;;;;;21.95;62.50;99816.28;5306967;26;32760;-88
2023/06/07 21:13:47;;;;;;;;;;;;;;;22.03;61.94;99821.81;5325239;26;32199;-87
2023/06/07 21:16:14;;;;;;;;;;;;;;;21.94;62.14;99819.97;5325124;26;34105;-87
2023/06/07 21:18:42;;;;;;;;;;;;;;;21.76;62.81;99817.09;5325149;26;33843;-87
2023/06/07 21:21:09;;;;;;;;;;;;;;;21.72;63.09;99816.50;5306984;26;33217;-87
2023/06/07 21:23:37;;;;;;;;;;;;;;;21.68;63.12;99820.47;5306620;26;32374;-87
2023/06/07 21:26:05;;;;;;;;;;;;;;;21.45;63.98;99822.50;5325281;26;33519;-88
2023/06/07 21:28:32;;;;;;;;;;;;;;;21.53;63.50;99819.16;5325597;26;33362;-87
2023/06/07 21:31:00;;;;;;;;;;;;;;;21.38;64.27;99817.84;5325688;26;33912;-87
2023/06/07 21:33:27;;;;;;;;;;;;;;;21.47;63.82;99823.25;5306886;26;32400;-88
2023/06/07 21:35:55;;;;;;;;;;;;;;;21.45;63.83;99825.19;5325168;26;33990;-88
2023/06/07 21:38:22;;;;;;;;;;;;;;;21.41;63.80;99829.16;5325396;26;33111;-88
2023/06/07 21:40:50;;;;;;;;;;;;;;;21.40;63.92;99815.84;5325170;26;34444;-89
2023/06/07 21:43:17;;;;;;;;;;;;;;;21.41;63.71;99809.47;5306872;26;32185;-89
2023/06/07 21:45:45;;;;;;;;;;;;;;;21.42;63.91;99808.53;5343650;26;33826;-89
2023/06/07 21:48:12;;;;;;;;;;;;;;;21.53;63.32;99805.72;5306690;26;33595;-89
2023/06/07 21:50:40;;;;;;;;;;;;;;;21.45;63.75;99808.22;5306522;26;33127;-88
2023/06/07 21:53:07;;;;;;;;;;;;;;;21.43;63.92;99804.84;5323920;26;33084;-89
2023/06/07 21:55:35;;;;;;;;;;;;;;;21.39;64.27;99808.78;5324035;26;33829;-89
2023/06/07 21:58:02;;;;;;;;;;;;;;;21.48;63.04;99803.44;5306006;26;33278;-89
2023/06/07 22:00:29;;;;;;;;;;;;;;;21.24;64.22;99808.28;5305923;26;34038;-90
2023/06/07 22:02:57;;;;;;;;;;;;;;;21.52;62.89;99809.41;5324710;26;33848;-89
2023/06/07 22:05:24;;;;;;;;;;;;;;;21.45;63.08;99810.91;5325382;26;34369;-89
2023/06/07 22:07:51;;;;;;;;;;;;;;;21.26;63.58;99808.97;5325366;26;33000;-90
2023/06/07 22:10:19;;;;;;;;;;;;;;;21.07;64.74;99815.09;5307362;26;33628;-89
2023/06/07 22:12:53;;;;;;;;;;;;;;;21.16;64.60;99819.66;5307394;26;33451;-90
2023/06/07 22:15:24;;;;;;;;;;;;;;;21.18;64.53;99811.50;5308700;26;32811;-89
2023/06/07 22:17:53;;;;;;;;;;;;;;;21.33;63.77;99814.72;5307035;26;33212;-90
2023/06/07 22:20:23;;;;;;;;;;;;;;;21.18;63.84;99806.97;5325677;26;33386;-89
2023/06/07 22:22:51;;;;;;;;;;;;;;;21.17;64.40;99807.97;5307261;26;33921;-89
2023/06/07 22:25:19;;;;;;;;;;;;;;;21.14;64.52;99816.28;5306812;26;33560;-90
2023/06/07 22:27:58;;;;;;;;;;;;;;;21.10;64.74;99820.22;5310710;26;32864;-90
2023/06/07 22:30:26;;;;;;;;;;;;;;;21.11;64.57;99816.53;5307182;26;33502;-90
2023/06/07 22:32:54;;;;;;;;;;;;;;;21.18;64.25;99806.97;5306948;26;33390;-90
2023/06/07 22:35:22;;;;;;;;;;;;;;;21.03;65.07;99818.19;5325473;26;32806;-89
2023/06/07 22:37:51;;;;;;;;;;;;;;;21.03;64.94;99813.69;5305203;26;34996;-88
2023/06/07 22:40:19;;;;;;;;;;;;;;;20.97;64.89;99820.41;5306152;26;33838;-89
2023/06/07 22:42:47;;;;;;;;;;;;;;;21.04;64.79;99815.38;5323985;26;32124;-90
2023/06/07 22:45:14;;;;;;;;;;;;;;;21.04;64.69;99804.66;5323813;26;34854;-89
2023/06/07 22:47:42;;;;;;;;;;;;;;;21.05;64.57;99811.72;5305706;26;33395;-90
2023/06/07 22:50:10;;;;;;;;;;;;;;;20.87;65.04;99807.94;5305860;26;32999;-89
2023/06/07 22:52:37;;;;;;;;;;;;;;;21.04;64.44;99807.34;5324195;26;31957;-89
2023/06/07 22:55:10;;;;;;;;;;;;;;;20.95;64.71;99810.81;5305380;26;32822;-89
2023/06/07 22:57:37;;;;;;;;;;;;;;;21.01;64.57;99815.66;5306792;26;33448;-88
2023/06/07 23:00:06;;;;;;;;;;;;;;;20.97;64.75;99808.84;5305581;26;33274;-89
2023/06/07 23:02:36;;;;;;;;;;;;;;;21.01;64.65;99806.75;5324838;26;32217;-88
2023/06/07 23:05:03;;;;;;;;;;;;;;;20.90;64.84;99796.94;5306548;26;33306;-87
2023/06/07 23:07:31;;;;;;;;;;;;;;;20.94;64.87;99803.75;5305533;26;34071;-88
2023/06/07 23:09:59;;;;;;;;;;;;;;;20.96;65.05;99805.31;5304993;26;34143;-88
2023/06/07 23:12:28;;;;;;;;;;;;;;;20.97;65.03;99804.31;5322576;26;33263;-88
2023/06/07 23:14:55;;;;;;;;;;;;;;;21.19;64.02;99805.13;5305393;26;33111;-88
2023/06/07 23:17:23;;;;;;;;;;;;;;;20.98;64.88;99802.47;5322888;26;33876;-88
2023/06/07 23:19:51;;;;;;;;;;;;;;;21.04;64.86;99804.66;5323439;26;32881;-88
2023/06/07 23:22:19;;;;;;;;;;;;;;;21.00;65.24;99800.53;5304905;26;32777;-89
2023/06/07 23:24:47;;;;;;;;;;;;;;;20.88;65.70;99796.22;5323459;26;34678;-88
2023/06/07 23:27:15;;;;;;;;;;;;;;;20.92;65.69;99795.81;5305939;26;33122;-88
2023/06/07 23:29:43;;;;;;;;;;;;;;;21.03;65.36;99794.91;5323075;26;33110;-88
2023/06/07 23:32:10;;;;;;;;;;;;;;;21.05;65.16;99784.88;5305150;26;32024;-88
2023/06/07 23:34:38;;;;;;;;;;;;;;;20.92;65.95;99789.59;5322833;26;32680;-88
2023/06/07 23:37:06;;;;;;;;;;;;;;;20.91;66.00;99787.91;5341325;26;34016;-88
2023/06/07 23:39:34;;;;;;;;;;;;;;;20.94;65.97;99793.03;5323114;26;34036;-88
2023/06/07 23:42:01;;;;;;;;;;;;;;;20.91;65.91;99788.75;5341565;26;33142;-88
2023/06/07 23:44:29;;;;;;;;;;;;;;;21.10;65.18;99793.38;5323211;26;34916;-88
2023/06/07 23:46:57;;;;;;;;;;;;;;;21.01;65.04;99796.84;5322959;26;33533;-88
2023/06/07 23:49:26;;;;;;;;;;;;;;;20.86;65.79;99795.50;5323580;26;33205;-88
2023/06/07 23:51:54;;;;;;;;;;;;;;;20.84;65.77;99792.09;5324036;26;32956;-86
2023/06/07 23:54:22;;;;;;;;;;;;;;;20.69;66.23;99797.78;5324003;26;34306;-86
2023/06/07 23:56:49;;;;;;;;;;;;;;;20.80;66.04;99790.69;5342330;26;34430;-86
2023/06/07 23:59:17;;;;;;;;;;;;;;;20.88;65.84;99790.84;5323579;26;34309;-86
